• Join FlightAware (Why Join?)
  • Login
  • US Flag 
12:54AM EDT


 

Airport Tracker/Info


-or-


 

Live Flight TrackerFlight Track Log ✈ UAL395 ✈ 25-Apr-2013 ✈ CYYC - KIAH

Flight Track Log - Related Links

Times and Time Zones

All times are in EDT time to prevent confusion due to time zone crossing. See the UAL395 flight status page for this flight to view local times or setup timezone preferences in your user account.

Time Position Orientation Groundspeed Altitude Reporting Facility
EDT Latitude Longitude Course Direction KTS MPH feet Rate Location/Type
07:28PM 51.1000 -114.0667 166° South 140 161 4,000  Level Edmonton Center
07:29PM 51.1167 -114.1167 298° West 140 161 6,200 1,500 Climbing Edmonton Center
07:30PM 51.1333 -114.1833 292° West 180 207 7,000 1,080 Climbing Edmonton Center
07:31PM 51.1167 -114.2500 248° West 270 311 8,400 1,920 Climbing Edmonton Center
07:32PM 51.0333 -114.2333 173° South 320 368 10,900 1,800 Climbing Edmonton Center
07:33PM 50.5543 -113.7684 166° South  Level FlightAware Approximate
07:33PM 50.9333 -114.2167 174° South 370 426 12,100  Level Edmonton Center
07:34PM 50.8167 -114.1667 165° South 410 472 14,000 1,920 Climbing Edmonton Center
07:35PM 50.7167 -114.1167 162° South 420 483 16,000 1,800 Climbing Edmonton Center
07:36PM 50.5833 -114.0667 167° South 440 506 17,700 1,800 Climbing Edmonton Center
07:37PM 50.4667 -114.0333 170° South 440 506 19,600 1,800 Climbing Edmonton Center
07:38PM 50.3500 -113.9833 165° South 460 529 21,300 1,740 Climbing Edmonton Center
07:39PM 50.2333 -113.9167 160° South 460 529 23,100 1,500 Climbing Edmonton Center
07:40PM 50.1167 -113.8167 151° Southeast 470 541 24,300 1,140 Climbing Edmonton Center
07:41PM 50.0000 -113.7000 147° Southeast 480 552 25,400 1,080 Climbing Edmonton Center
07:42PM 49.8833 -113.6000 151° Southeast 490 564 26,500 1,020 Climbing Edmonton Center
07:43PM 49.7500 -113.4833 151° Southeast 500 575 27,500 900 Climbing Edmonton Center
07:44PM 49.6500 -113.3833 147° Southeast 510 587 28,400 1,020 Climbing Edmonton Center
07:45PM 49.5167 -113.2500 147° Southeast 500 575 29,600 1,140 Climbing Edmonton Center
07:46PM 49.4000 -113.1500 151° Southeast 510 587 30,700 1,200 Climbing Edmonton Center
07:47PM 49.2833 -113.0333 147° Southeast 500 575 32,100 1,200 Climbing Edmonton Center
07:48PM 49.1500 -112.9333 154° Southeast 490 564 33,100 960 Climbing Edmonton Center
07:49PM 49.0500 -112.8333 147° Southeast 490 564 34,100 840 Climbing Edmonton Center
07:50PM 48.9167 -112.7000 147° Southeast 490 564 34,800 420 Climbing Edmonton Center
07:51PM 48.8511 -112.5975 134° Southeast 494 568 35,000 60 Climbing Salt Lake Center
07:52PM 48.7228 -112.4828 149° Southeast 493 567 35,000  Level Salt Lake Center
07:53PM 48.6050 -112.3797 150° Southeast 491 565 35,000 -60 Level Salt Lake Center
07:54PM 48.4639 -112.2544 150° Southeast 492 566 34,900  Descending Salt Lake Center
07:55PM 48.3453 -112.1514 150° Southeast 493 567 35,000  Climbing Salt Lake Center
07:56PM 48.2286 -112.0486 150° Southeast 490 564 34,900  Descending Salt Lake Center
07:57PM 48.1108 -111.9461 150° Southeast 491 565 35,000  Climbing Salt Lake Center
07:58PM 47.9919 -111.8447 150° Southeast 493 567 35,000  Level Salt Lake Center
07:59PM 47.8756 -111.7442 150° Southeast 490 564 35,000 -60 Level Salt Lake Center
08:00PM 47.7347 -111.6244 150° Southeast 489 563 34,900 -60 Descending Salt Lake Center
08:01PM 47.6192 -111.5264 150° Southeast 488 562 34,900  Level Salt Lake Center
08:02PM 47.5042 -111.4292 150° Southeast 490 564 34,900  Level Salt Lake Center
08:03PM 47.3883 -111.3308 150° Southeast 490 564 35,000  Climbing Salt Lake Center
08:04PM 47.2700 -111.2322 151° Southeast 493 567 35,000 -60 Level Salt Lake Center
08:05PM 47.1303 -111.1158 150° Southeast 485 558 34,900 -60 Descending Salt Lake Center
08:06PM 47.0111 -111.0175 151° Southeast 493 567 34,900  Level Salt Lake Center
08:07PM 46.8928 -110.9197 151° Southeast 491 565 35,000  Climbing Salt Lake Center
08:08PM 46.7731 -110.8228 151° Southeast 492 566 35,000  Level Salt Lake Center
08:10PM 46.6519 -110.7242 151° Southeast 499 574 35,000 -60 Level Salt Lake Center
08:11PM 46.5319 -110.6267 151° Southeast 497 572 34,900  Descending Salt Lake Center
08:12PM 46.3944 -110.5219 152° Southeast 491 565 35,000  Climbing Salt Lake Center
08:13PM 46.2597 -110.4111 150° Southeast 499 574 35,000  Level Salt Lake Center
08:14PM 46.1444 -110.3186 151° Southeast 496 571 35,000  Level Salt Lake Center
08:15PM 46.0081 -110.2122 152° Southeast 497 572 35,000  Level Salt Lake Center
08:16PM 45.8917 -110.1206 151° Southeast 499 574 35,000  Level Salt Lake Center
08:17PM 45.7761 -110.0286 151° Southeast 499 574 35,000  Level Salt Lake Center
08:18PM 45.6406 -109.9231 151° Southeast 496 571 35,000  Level Salt Lake Center
08:19PM 45.5247 -109.8344 152° Southeast 495 570 35,000  Level Salt Lake Center
08:20PM 45.3906 -109.7289 151° Southeast 494 568 35,000  Level Salt Lake Center
08:21PM 45.2750 -109.6417 152° Southeast 493 567 35,000  Level Salt Lake Center
08:22PM 45.1397 -109.5383 152° Southeast 493 567 35,000  Level Salt Lake Center
08:23PM 45.0261 -109.4514 152° Southeast 486 559 35,000  Level Salt Lake Center
08:24PM 44.8925 -109.3506 152° Southeast 489 563 35,000  Level Salt Lake Center
08:25PM 44.7775 -109.2647 152° Southeast 489 563 35,000  Level Salt Lake Center
08:26PM 44.6444 -109.1650 152° Southeast 486 559 35,000  Level Salt Lake Center
08:27PM 44.5311 -109.0811 152° Southeast 485 558 35,000  Level Salt Lake Center
08:28PM 44.4194 -108.9975 152° Southeast 481 554 35,000 -6,240 Level Salt Lake Center
08:29PM 44.2875 -108.9006 152° Southeast 480 552 22,200  Descending Salt Lake Center
08:31PM 44.0433 -108.7217 152° Southeast 480 552 35,000 4,140 Climbing Salt Lake Center
08:32PM 43.9300 -108.6389 152° Southeast 483 556 35,000  Level Salt Lake Center
08:33PM 43.8011 -108.5442 152° Southeast 471 542 35,000  Level Salt Lake Center
08:34PM 43.6911 -108.4658 153° Southeast 467 537 35,000 -60 Level Salt Lake Center
08:35PM 43.5622 -108.3736 153° Southeast 468 539 34,900  Descending Salt Lake Center
08:36PM 43.4531 -108.2878 150° Southeast 473 544 35,000 60 Climbing Salt Lake Center
08:37PM 43.3392 -108.1556 140° Southeast 480 552 35,100  Climbing Salt Lake Center
08:38PM 43.2428 -108.0422 139° Southeast 479 551 35,000 -60 Descending Salt Lake Center
08:39PM 43.1308 -107.9097 139° Southeast 478 550 35,000  Level Salt Lake Center
08:40PM 43.0347 -107.7989 140° Southeast 473 544 35,000  Level Salt Lake Center
08:41PM 42.9361 -107.6819 139° Southeast 474 545 35,000  Level Salt Lake Center
08:42PM 42.8219 -107.5492 140° Southeast 482 555 35,000  Level Salt Lake Center
08:44PM 42.7236 -107.4364 140° Southeast 483 556 35,000  Level Salt Lake Center
08:45PM 42.6244 -107.3228 140° Southeast 485 558 35,000  Level Salt Lake Center
08:46PM 42.5094 -107.1908 140° Southeast 485 558 35,000  Level Salt Lake Center
08:47PM 42.4106 -107.0800 140° Southeast 483 556 35,000  Level Salt Lake Center
08:48PM 42.2944 -106.9483 140° Southeast 485 558 35,000  Level Salt Lake Center
08:49PM 42.1953 -106.8378 140° Southeast 484 557 35,000  Level Salt Lake Center
08:50PM 42.0625 -106.6889 140° Southeast 486 559 35,000  Level Denver Center
08:51PM 41.9639 -106.5781 140° Southeast 484 557 35,000  Level Denver Center
08:52PM 41.8511 -106.4539 141° Southeast 479 551 35,000  Level Denver Center
08:53PM 41.7531 -106.3456 140° Southeast 477 549 35,000  Level Denver Center
08:54PM 41.6389 -106.2192 140° Southeast 478 550 35,000  Level Denver Center
08:55PM 41.5403 -106.1119 141° Southeast 478 550 35,000  Level Denver Center
08:56PM 41.4433 -106.0061 141° Southeast 473 544 35,000  Level Denver Center
08:57PM 41.3303 -105.8825 141° Southeast 471 542 35,000  Level Denver Center
08:58PM 41.2319 -105.7775 141° Southeast 473 544 35,000  Level Denver Center
08:59PM 41.1169 -105.6531 141° Southeast 477 549 35,000  Level Denver Center
09:00PM 41.0094 -105.5361 141° Southeast 476 548 35,000  Level Denver Center
09:01PM 40.9058 -105.4275 142° Southeast 470 541 35,000  Level Denver Center
09:02PM 40.8033 -105.3197 141° Southeast 468 539 35,000  Level Denver Center
09:03PM 40.7006 -105.2081 141° Southeast 472 543 35,000  Level Denver Center
09:04PM 40.5978 -105.1006 142° Southeast 467 537 35,000  Level Denver Center
09:05PM 40.4931 -104.9897 141° Southeast 472 543 35,000  Level Denver Center
09:06PM 40.3883 -104.8808 142° Southeast 475 547 35,000  Level Denver Center
09:07PM 40.2828 -104.7711 142° Southeast 479 551 35,100  Climbing Denver Center
09:08PM 40.1783 -104.6633 142° Southeast 472 543 35,000 -60 Descending Denver Center
09:09PM 40.0731 -104.5544 142° Southeast 476 548 35,000  Level Denver Center
09:10PM 39.9533 -104.4306 142° Southeast 464 534 35,000  Level Denver Center
09:11PM 39.8497 -104.3258 142° Southeast 463 533 35,000 240 Level Denver Center
09:12PM 39.7458 -104.2189 142° Southeast 466 536 35,600 660 Climbing Denver Center
09:14PM 39.6406 -104.1114 142° Southeast 471 542 36,400 660 Climbing Denver Center
09:15PM 39.5369 -104.0081 142° Southeast 463 533 37,000 240 Climbing Denver Center
09:16PM 39.4303 -103.9003 142° Southeast 473 544 37,000  Level Denver Center
09:17PM 39.3281 -103.7981 142° Southeast 456 525 37,000  Level Denver Center
09:18PM 39.2222 -103.6925 142° Southeast 472 543 37,000  Level Denver Center
09:19PM 39.1167 -103.5872 142° Southeast 475 547 37,000  Level Denver Center
09:20PM 39.0142 -103.4850 142° Southeast 461 531 37,000  Level Denver Center
09:21PM 38.9108 -103.3836 143° Southeast 462 532 37,000  Level Denver Center
09:22PM 38.7911 -103.2658 143° Southeast 460 529 37,000  Level Denver Center
09:23PM 38.6886 -103.1647 142° Southeast 459 528 37,000  Level Denver Center
09:24PM 38.5933 -103.0472 136° Southeast 476 548 37,000  Level Denver Center
09:25PM 38.5181 -102.9017 123° Southeast 497 572 37,000  Level Denver Center
09:26PM 38.4322 -102.7417 124° Southeast 491 565 37,000  Level Denver Center
09:27PM 38.3592 -102.6036 124° Southeast 491 565 37,000  Level Denver Center
09:28PM 38.2650 -102.4500 128° Southeast 491 565 37,000  Level Denver Center
09:29PM 38.1714 -102.3361 136° Southeast 487 560 37,000  Level Denver Center
09:30PM 38.0589 -102.2094 138° Southeast 487 560 37,000  Level Denver Center
09:31PM 37.9539 -102.1217 147° Southeast 476 548 37,000  Level Denver Center
09:32PM 37.8533 -102.0336 145° Southeast 463 533 37,000  Level Denver Center
09:33PM 37.7356 -101.9356 147° Southeast 455 524 37,000  Level Denver Center
09:34PM 37.6350 -101.8503 146° Southeast 456 525 37,000  Level Denver Center
09:35PM 37.5822 -101.8056 146° Southeast 463 533 37,000  Level Kansas City Center
09:36PM 37.4789 -101.7197 147° Southeast 467 537 37,000  Level Kansas City Center
09:37PM 37.3583 -101.6172 146° Southeast 470 541 37,000  Level Kansas City Center
09:38PM 37.2533 -101.5297 146° Southeast 473 544 37,000  Level Kansas City Center
09:39PM 37.1300 -101.4264 146° Southeast 478 550 37,100  Climbing Kansas City Center
09:40PM 37.0253 -101.3403 147° Southeast 474 545 37,000 -60 Descending Kansas City Center
09:41PM 36.9039 -101.2386 146° Southeast 473 544 37,000  Level Kansas City Center
09:42PM 36.8000 -101.1528 147° Southeast 471 542 37,000  Level Kansas City Center
09:43PM 36.6961 -101.0678 147° Southeast 469 540 37,000  Level Kansas City Center
09:44PM 36.5756 -100.9678 146° Southeast 467 537 37,000  Level Kansas City Center
09:45PM 36.4711 -100.8836 147° Southeast 468 539 37,000  Level Kansas City Center
09:46PM 36.3483 -100.7858 147° Southeast 469 540 37,000  Level Kansas City Center
09:47PM 36.2242 -100.6822 146° Southeast 470 541 37,000  Level Albuquerque Center
09:48PM 36.1142 -100.5947 147° Southeast 470 541 37,000  Level Albuquerque Center
09:50PM 35.9069 -100.4289 147° Southeast 472 543 37,000  Level Kansas City Center
09:51PM 35.7822 -100.3281 147° Southeast 475 547 37,000  Level Kansas City Center
09:52PM 35.6717 -100.2406 147° Southeast 474 545 37,000  Level Kansas City Center
09:53PM 35.5633 -100.1544 147° Southeast 469 540 37,000  Level Kansas City Center
09:54PM 35.4325 -100.0497 147° Southeast 470 541 37,000  Level Albuquerque Center
09:55PM 35.3217 -99.9644 148° Southeast 470 541 37,000  Level Albuquerque Center
09:56PM 35.2100 -99.8767 147° Southeast 474 545 37,000  Level Albuquerque Center
09:57PM 35.0981 -99.7892 147° Southeast 477 549 37,000  Level Albuquerque Center
09:58PM 34.9869 -99.7019 147° Southeast 476 548 37,000  Level Albuquerque Center
09:59PM 34.8767 -99.6172 148° Southeast 471 542 37,000  Level Albuquerque Center
10:00PM 34.7436 -99.5128 147° Southeast 472 543 37,000  Level Albuquerque Center
10:01PM 34.6450 -99.4403 149° Southeast 475 547 37,000  Level Fort Worth Center
10:02PM 34.5339 -99.3544 148° Southeast 475 547 37,000  Level Fort Worth Center
10:03PM 34.4244 -99.2689 147° Southeast 475 547 37,000  Level Fort Worth Center
10:04PM 34.3256 -99.1889 146° Southeast 475 547 37,000  Level Fort Worth Center
10:05PM 34.2036 -99.0986 149° Southeast 476 548 37,000  Level Fort Worth Center
10:06PM 34.1025 -99.0264 149° Southeast 476 548 37,000  Level Fort Worth Center
10:07PM 33.9889 -98.9339 146° Southeast 476 548 37,000  Level Fort Worth Center
10:08PM 33.8792 -98.8519 148° Southeast 476 548 37,000  Level Fort Worth Center
10:09PM 33.7550 -98.7600 148° Southeast 474 545 37,000  Level Fort Worth Center
10:10PM 33.6411 -98.6783 149° Southeast 469 540 37,000  Level Fort Worth Center
10:11PM 33.5394 -98.5972 146° Southeast 474 545 37,000  Level Fort Worth Center
10:12PM 33.4275 -98.5136 148° Southeast 474 545 37,000  Level Fort Worth Center
10:13PM 33.3011 -98.4225 149° Southeast 479 551 37,000  Level Fort Worth Center
10:14PM 33.2014 -98.3494 148° Southeast 479 551 37,000  Level Fort Worth Center
10:15PM 33.0853 -98.2614 148° Southeast 474 545 37,000  Level Fort Worth Center
10:16PM 32.9708 -98.1811 150° Southeast 480 552 37,000  Level Fort Worth Center
10:17PM 32.8567 -98.0961 148° Southeast 490 564 37,000  Level Fort Worth Center
10:18PM 32.7442 -98.0086 147° Southeast 490 564 37,000  Level Fort Worth Center
10:19PM 32.6444 -97.8994 137° Southeast 490 564 37,000  Level Fort Worth Center
10:20PM 32.5447 -97.7756 134° Southeast 500 575 37,000  Level Fort Worth Center
10:21PM 32.4489 -97.6572 134° Southeast 506 582 37,000  Level Fort Worth Center
10:22PM 32.3428 -97.5242 133° Southeast 506 582 37,000 -240 Level Fort Worth Center
10:23PM 32.2467 -97.4036 133° Southeast 501 577 36,600 -660 Descending Fort Worth Center
10:24PM 32.1506 -97.2883 135° Southeast 501 577 35,700 -840 Descending Fort Worth Center
10:25PM 32.0544 -97.1708 134° Southeast 493 567 35,000 -360 Descending Fort Worth Center
10:26PM 31.9750 -97.0681 132° Southeast 504 580 35,000  Level Fort Worth Center
10:27PM 31.8722 -96.9411 134° Southeast 499 574 35,000 -420 Level Fort Worth Center
10:28PM 31.7756 -96.8219 134° Southeast 499 574 34,200 -1,740 Descending Fort Worth Center
10:30PM 31.6086 -96.6183 134° Southeast 508 585 30,300 -1,920 Descending Houston Center
10:31PM 31.4994 -96.5197 142° Southeast 493 567 29,000 -660 Descending Houston Center
10:32PM 31.3786 -96.4425 151° Southeast 487 560 29,000 -840 Level Houston Center
10:33PM 31.2594 -96.3678 152° Southeast 483 556 27,300 -2,220 Descending Houston Center
10:34PM 31.1417 -96.2928 151° Southeast 475 547 24,600 -2,700 Descending Houston Center
10:35PM 31.0244 -96.2197 152° Southeast 471 542 21,900 -2,760 Descending Houston Center
10:36PM 30.9114 -96.1478 151° Southeast 462 532 19,100 -2,640 Descending Houston Center
10:37PM 30.8008 -96.0794 152° Southeast 447 514 16,600 -2,640 Descending Houston Center
10:38PM 30.6889 -96.0103 152° Southeast 412 474 13,800 -2,460 Descending Houston Center
10:39PM 30.6092 -95.9597 151° Southeast 376 433 11,700 -2,040 Descending Houston Center
10:39PM 30.5619 -95.9303 152° Southeast 363 418 11,100 -1,020 Descending Houston Center
10:40PM 30.5258 -95.9072 151° Southeast 343 395 10,700 -900 Descending Houston Center
10:40PM 30.4886 -95.8856 153° Southeast 285 328 10,200 -720 Descending Houston Center
10:41PM 30.4417 -95.8542 150° Southeast 290 334 10,000 -240 Descending Houston Center
10:41PM 30.4231 -95.8303 132° Southeast 293 337 10,000  Level Houston Center
10:42PM 30.3819 -95.7894 139° Southeast 291 335 10,000 -420 Level Houston Center
10:43PM 30.3519 -95.7853 173° South 282 325 9,600 -1,020 Descending Houston Center
10:43PM 30.3028 -95.7783 173° South 288 331 9,000 -960 Descending Houston Center
10:44PM 30.2628 -95.7739 175° South 287 330 8,600 -900 Descending Houston Center
10:44PM 30.2253 -95.7600 162° South 284 327 8,100 -1,140 Descending Houston Center
10:45PM 30.1925 -95.7386 151° Southeast 276 318 7,500 -1,320 Descending Houston Center
10:45PM 30.1611 -95.7167 149° Southeast 271 312 6,800 -1,380 Descending Houston Center
10:46PM 30.1278 -95.6953 151° Southeast 265 305 6,100 -1,380 Descending Houston Center
10:46PM 30.1022 -95.6631 133° Southeast 275 316 5,400 -1,500 Descending Houston Center
10:47PM 30.0764 -95.6364 138° Southeast 264 304 4,600 -1,500 Descending Houston Center
10:47PM 30.0506 -95.6033 132° Southeast 267 307 3,900 -1,320 Descending Houston Center
10:48PM 30.0267 -95.5744 134° Southeast 258 297 3,300 -1,440 Descending Houston Center